createdAt,value
2019-01-14T00:00:15.173Z,983.8
2019-01-14T00:03:14.920Z,983.9
2019-01-14T00:06:15.791Z,983.8
2019-01-14T00:09:15.449Z,983.9
2019-01-14T00:12:14.805Z,984.0
2019-01-14T00:15:15.993Z,983.9
2019-01-14T00:18:15.021Z,983.9
2019-01-14T00:21:15.418Z,983.9
2019-01-14T00:24:15.233Z,984.1
2019-01-14T00:27:15.823Z,984.1
2019-01-14T00:30:15.654Z,984.2
2019-01-14T00:33:16.023Z,984.3
2019-01-14T00:36:17.554Z,984.3
2019-01-14T00:39:15.591Z,984.5
2019-01-14T00:42:15.695Z,984.6
2019-01-14T00:45:15.921Z,984.7
2019-01-14T00:48:15.857Z,984.7
2019-01-14T00:51:15.103Z,984.8
2019-01-14T00:54:15.226Z,984.8
2019-01-14T00:57:15.397Z,984.9
2019-01-14T01:00:15.483Z,985.0
2019-01-14T01:03:15.410Z,984.8
2019-01-14T01:06:15.071Z,984.9
2019-01-14T01:09:15.332Z,985.0
2019-01-14T01:12:15.221Z,985.0
2019-01-14T01:15:15.017Z,985.2
2019-01-14T01:18:15.530Z,985.3
2019-01-14T01:21:14.964Z,985.4
2019-01-14T01:24:15.612Z,985.3
2019-01-14T01:27:15.320Z,985.4
2019-01-14T01:30:15.449Z,985.4
2019-01-14T01:33:15.533Z,985.6
2019-01-14T01:36:15.390Z,985.6
2019-01-14T01:39:15.726Z,985.6
2019-01-14T01:42:15.405Z,985.7
2019-01-14T01:45:14.979Z,985.8
2019-01-14T01:48:15.174Z,985.8
2019-01-14T01:51:15.755Z,985.9
2019-01-14T01:54:14.924Z,986.1
2019-01-14T01:57:15.532Z,986.1
2019-01-14T02:00:15.075Z,986.1
2019-01-14T02:03:15.627Z,986.2
2019-01-14T02:06:15.187Z,986.3
2019-01-14T02:09:15.715Z,986.5
2019-01-14T02:12:15.113Z,986.6
2019-01-14T02:15:15.490Z,986.8
2019-01-14T02:18:15.066Z,986.8
2019-01-14T02:21:15.794Z,986.8
2019-01-14T02:24:15.391Z,986.9
2019-01-14T02:27:15.016Z,987.1
2019-01-14T02:30:15.711Z,987.4
2019-01-14T02:33:15.339Z,987.4
2019-01-14T02:36:15.820Z,987.3
2019-01-14T02:39:15.468Z,987.4
2019-01-14T02:42:15.067Z,987.4
2019-01-14T02:45:15.765Z,987.5
2019-01-14T02:48:15.210Z,987.7
2019-01-14T02:51:15.727Z,987.6
2019-01-14T02:54:15.276Z,987.6
2019-01-14T02:57:15.807Z,987.6
2019-01-14T03:00:15.360Z,987.5
2019-01-14T03:03:15.357Z,987.6
2019-01-14T03:06:15.865Z,987.8
2019-01-14T03:09:15.478Z,987.8
2019-01-14T03:12:15.032Z,987.8
2019-01-14T03:15:15.605Z,987.7
2019-01-14T03:18:15.341Z,987.6
2019-01-14T03:21:14.986Z,987.7
2019-01-14T03:24:15.430Z,987.6
2019-01-14T03:27:14.952Z,987.7
2019-01-14T03:30:15.739Z,987.7
2019-01-14T03:33:15.238Z,987.7
2019-01-14T03:36:14.992Z,987.6
2019-01-14T03:39:15.516Z,987.6
2019-01-14T03:42:15.012Z,987.5
2019-01-14T03:45:15.563Z,987.5
2019-01-14T03:48:15.134Z,987.4
2019-01-14T03:51:15.780Z,987.7
2019-01-14T03:54:15.557Z,987.6
2019-01-14T03:57:15.466Z,987.6
2019-01-14T04:00:15.119Z,987.8
2019-01-14T04:03:15.826Z,987.7
2019-01-14T04:06:15.359Z,987.7
2019-01-14T04:09:14.998Z,987.8
2019-01-14T04:12:15.572Z,987.8
2019-01-14T04:15:15.134Z,987.9
2019-01-14T04:18:14.907Z,987.9
2019-01-14T04:21:15.552Z,988.0
2019-01-14T04:24:15.158Z,988.0
2019-01-14T04:27:15.642Z,988.0
2019-01-14T04:30:15.298Z,988.0
2019-01-14T04:33:14.930Z,987.9
2019-01-14T04:36:15.513Z,987.8
2019-01-14T04:39:15.179Z,987.9
2019-01-14T04:42:15.064Z,988.0
2019-01-14T04:45:15.731Z,988.0
2019-01-14T04:48:15.534Z,988.0
2019-01-14T04:51:15.246Z,988.1
2019-01-14T04:54:15.012Z,988.1
2019-01-14T04:57:15.561Z,988.2
2019-01-14T05:00:15.257Z,988.2
2019-01-14T05:03:15.925Z,988.3
2019-01-14T05:06:15.596Z,988.4
2019-01-14T05:09:15.372Z,988.4
2019-01-14T05:12:14.938Z,988.4
2019-01-14T05:15:15.496Z,988.4
2019-01-14T05:18:15.188Z,988.4
2019-01-14T05:21:15.882Z,988.6
2019-01-14T05:24:15.633Z,988.6
2019-01-14T05:27:15.883Z,988.7
2019-01-14T05:30:15.659Z,988.7
2019-01-14T05:33:15.468Z,988.8
2019-01-14T05:36:15.217Z,988.8
2019-01-14T05:39:15.841Z,988.9
2019-01-14T05:42:15.529Z,988.8
2019-01-14T05:45:15.135Z,988.9
2019-01-14T05:48:15.789Z,988.9
2019-01-14T05:51:15.442Z,988.9
2019-01-14T05:54:15.092Z,989.0
2019-01-14T05:57:15.688Z,989.0
2019-01-14T06:00:15.654Z,988.9
2019-01-14T06:03:14.947Z,988.9
2019-01-14T06:06:15.622Z,988.9
2019-01-14T06:09:15.358Z,989.0
2019-01-14T06:12:15.048Z,989.0
2019-01-14T06:15:15.641Z,989.1
2019-01-14T06:18:15.583Z,989.1
2019-01-14T06:21:15.471Z,989.1
2019-01-14T06:24:15.302Z,989.3
2019-01-14T06:27:15.953Z,989.4
2019-01-14T06:30:15.594Z,989.3
2019-01-14T06:33:15.647Z,989.4
2019-01-14T06:36:15.282Z,989.4
2019-01-14T06:39:15.181Z,989.4
2019-01-14T06:42:14.874Z,989.4
2019-01-14T06:45:15.481Z,989.5
2019-01-14T06:48:15.191Z,989.6
2019-01-14T06:51:15.505Z,989.6
2019-01-14T06:54:15.365Z,989.7
2019-01-14T06:57:15.044Z,989.7
2019-01-14T07:00:15.692Z,989.8
2019-01-14T07:03:15.613Z,989.9
2019-01-14T07:06:16.486Z,990.0
2019-01-14T07:09:15.120Z,990.0
2019-01-14T07:12:15.684Z,990.1
2019-01-14T07:15:15.386Z,990.2
2019-01-14T07:18:15.227Z,990.2
2019-01-14T07:21:15.029Z,990.1
2019-01-14T07:24:15.520Z,990.2
2019-01-14T07:27:15.279Z,990.2
2019-01-14T07:30:15.116Z,990.4
2019-01-14T07:33:15.718Z,990.4
2019-01-14T07:36:15.724Z,990.5
2019-01-14T07:39:15.377Z,990.4
2019-01-14T07:42:14.975Z,990.5
2019-01-14T07:45:15.603Z,990.5
2019-01-14T07:48:15.173Z,990.6
2019-01-14T07:51:15.003Z,990.6
2019-01-14T07:54:15.796Z,990.7
2019-01-14T07:57:15.559Z,990.7
2019-01-14T08:00:15.198Z,990.7
2019-01-14T08:03:15.575Z,990.8
2019-01-14T08:06:15.274Z,990.8
2019-01-14T08:09:16.031Z,990.8
2019-01-14T08:12:15.649Z,990.8
2019-01-14T08:15:15.189Z,990.8
2019-01-14T08:18:15.123Z,990.8
2019-01-14T08:21:15.744Z,990.8
2019-01-14T08:24:15.588Z,990.9
2019-01-14T08:27:15.264Z,991.0
2019-01-14T08:30:14.941Z,991.1
2019-01-14T08:33:15.659Z,991.1
2019-01-14T08:36:15.319Z,991.1
2019-01-14T08:39:15.058Z,991.2
2019-01-14T08:42:15.909Z,991.2
2019-01-14T08:45:15.505Z,991.2
2019-01-14T08:48:15.188Z,991.2
2019-01-14T08:51:15.261Z,991.1
2019-01-14T08:54:15.845Z,991.2
2019-01-14T08:57:15.573Z,991.2
2019-01-14T09:00:15.271Z,991.2
2019-01-14T09:03:15.180Z,991.2
2019-01-14T09:06:15.985Z,991.2
2019-01-14T09:09:15.862Z,991.2
2019-01-14T09:12:15.624Z,991.2
2019-01-14T09:15:15.493Z,991.3
2019-01-14T09:18:15.318Z,991.3
2019-01-14T09:21:15.082Z,991.2
2019-01-14T09:24:15.851Z,991.2
2019-01-14T09:27:15.607Z,991.3
2019-01-14T09:30:15.436Z,991.3
2019-01-14T09:33:15.710Z,991.3
2019-01-14T09:36:15.581Z,991.4
2019-01-14T09:39:15.337Z,991.3
2019-01-14T09:42:14.975Z,991.4
2019-01-14T09:45:15.712Z,991.5
2019-01-14T09:48:15.536Z,991.6
2019-01-14T09:51:15.144Z,991.7
2019-01-14T09:54:15.644Z,991.9
2019-01-14T09:57:15.216Z,992.0
2019-01-14T10:00:15.628Z,992.0
2019-01-14T10:03:15.434Z,992.1
2019-01-14T10:06:15.161Z,992.1
2019-01-14T10:09:15.078Z,992.2
2019-01-14T10:12:15.817Z,992.2
2019-01-14T10:15:15.635Z,992.3
2019-01-14T10:18:15.615Z,992.3
2019-01-14T10:21:15.283Z,992.4
2019-01-14T10:24:15.956Z,992.4
2019-01-14T10:27:15.588Z,992.4
2019-01-14T10:30:15.506Z,992.5
2019-01-14T10:33:15.296Z,992.5
2019-01-14T10:36:15.081Z,992.5
2019-01-14T10:39:17.060Z,992.5
2019-01-14T10:42:15.898Z,992.5
2019-01-14T10:45:15.648Z,992.5
2019-01-14T10:48:15.339Z,992.6
2019-01-14T10:51:15.043Z,992.6
2019-01-14T10:54:15.812Z,992.6
2019-01-14T10:57:15.505Z,992.6
2019-01-14T11:00:15.277Z,992.6
2019-01-14T11:03:14.936Z,992.6
2019-01-14T11:06:15.608Z,992.6
2019-01-14T11:09:15.129Z,992.7
2019-01-14T11:12:15.908Z,992.8
2019-01-14T11:15:15.576Z,992.8
2019-01-14T11:18:15.670Z,992.8
2019-01-14T11:21:15.313Z,992.8
2019-01-14T11:24:14.974Z,992.9
2019-01-14T11:27:15.138Z,993.0
2019-01-14T11:30:14.962Z,993.0
2019-01-14T11:33:15.225Z,992.9
2019-01-14T11:36:15.807Z,992.9
2019-01-14T11:39:15.623Z,992.9
2019-01-14T11:42:15.316Z,993.0
2019-01-14T11:45:15.081Z,993.0
2019-01-14T11:48:15.652Z,993.1
2019-01-14T11:51:15.337Z,993.2
2019-01-14T11:54:14.903Z,993.2
2019-01-14T11:57:15.731Z,993.3
2019-01-14T12:00:15.600Z,993.3
2019-01-14T12:03:15.501Z,993.3
2019-01-14T12:06:15.131Z,993.3
2019-01-14T12:09:15.756Z,993.2
2019-01-14T12:12:15.512Z,993.3
2019-01-14T12:15:15.152Z,993.3
2019-01-14T12:18:15.592Z,993.4
2019-01-14T12:21:15.363Z,993.4
2019-01-14T12:24:14.939Z,993.4
2019-01-14T12:27:15.658Z,993.4
2019-01-14T12:30:15.322Z,993.5
2019-01-14T12:33:15.088Z,993.6
2019-01-14T12:36:15.801Z,993.7
2019-01-14T12:39:19.402Z,993.7
2019-01-14T12:42:15.694Z,993.7
2019-01-14T12:45:15.331Z,993.8
2019-01-14T12:48:14.983Z,993.7
2019-01-14T12:51:15.580Z,993.7
2019-01-14T12:54:15.308Z,993.7
2019-01-14T12:57:15.109Z,993.8
2019-01-14T13:00:15.901Z,993.8
2019-01-14T13:03:15.127Z,993.9
2019-01-14T13:06:15.916Z,993.9
2019-01-14T13:09:15.490Z,994.0
2019-01-14T13:12:15.114Z,994.2
2019-01-14T13:15:15.789Z,994.0
2019-01-14T13:18:15.869Z,993.9
2019-01-14T13:21:15.488Z,994.0
2019-01-14T13:24:15.174Z,994.0
2019-01-14T13:27:16.054Z,994.0
2019-01-14T13:30:15.860Z,994.1
2019-01-14T13:33:15.581Z,994.1
2019-01-14T13:36:15.185Z,994.3
2019-01-14T13:39:15.027Z,994.3
2019-01-14T13:42:15.867Z,994.3
2019-01-14T13:45:15.664Z,994.3
2019-01-14T13:48:15.589Z,994.4
2019-01-14T13:51:15.352Z,994.5
2019-01-14T13:54:15.081Z,994.6
2019-01-14T13:57:15.582Z,994.7
2019-01-14T14:00:15.359Z,994.8
2019-01-14T14:03:15.253Z,994.8
2019-01-14T14:06:15.888Z,994.8
2019-01-14T14:09:15.614Z,994.8
2019-01-14T14:12:15.089Z,994.8
2019-01-14T14:15:15.667Z,994.8
2019-01-14T14:18:15.414Z,994.8
2019-01-14T14:21:15.166Z,994.7
2019-01-14T14:24:14.919Z,994.8
2019-01-14T14:27:15.625Z,994.7
2019-01-14T14:30:15.364Z,994.9
2019-01-14T14:33:15.161Z,994.9
2019-01-14T14:36:15.804Z,994.9
2019-01-14T14:39:15.346Z,994.9
2019-01-14T14:42:15.063Z,995.0
2019-01-14T14:45:15.604Z,994.9
2019-01-14T14:48:15.506Z,994.9
2019-01-14T14:51:15.166Z,995.0
2019-01-14T14:54:14.883Z,995.0
2019-01-14T14:57:15.712Z,995.2
2019-01-14T15:00:15.427Z,995.1
2019-01-14T15:03:15.112Z,995.3
2019-01-14T15:06:15.615Z,995.3
2019-01-14T15:09:15.161Z,995.5
2019-01-14T15:12:15.355Z,995.5
2019-01-14T15:15:15.062Z,995.6
2019-01-14T15:18:14.997Z,995.6
2019-01-14T15:21:15.633Z,995.8
2019-01-14T15:24:15.188Z,995.9
2019-01-14T15:27:15.709Z,996.1
2019-01-14T15:30:15.506Z,996.0
2019-01-14T15:33:15.280Z,996.1
2019-01-14T15:36:15.496Z,996.1
2019-01-14T15:39:16.352Z,996.2
2019-01-14T15:42:15.042Z,996.3
2019-01-14T15:45:15.690Z,996.5
2019-01-14T15:48:15.463Z,996.6
2019-01-14T15:51:15.103Z,996.5
2019-01-14T15:54:15.798Z,996.5
2019-01-14T15:57:15.401Z,996.5
2019-01-14T16:00:15.123Z,996.5
2019-01-14T16:03:15.115Z,996.5
2019-01-14T16:06:15.840Z,996.6
2019-01-14T16:09:15.489Z,996.6
2019-01-14T16:12:15.477Z,996.7
2019-01-14T16:15:15.336Z,996.7
2019-01-14T16:18:15.276Z,996.7
2019-01-14T16:21:15.630Z,996.9
2019-01-14T16:24:15.293Z,997.0
2019-01-14T16:27:14.977Z,997.0
2019-01-14T16:30:15.808Z,997.1
2019-01-14T16:33:15.713Z,997.1
2019-01-14T16:36:15.459Z,997.1
2019-01-14T16:39:15.021Z,997.3
2019-01-14T16:42:15.785Z,997.3
2019-01-14T16:45:15.369Z,997.4
2019-01-14T16:48:15.164Z,997.4
2019-01-14T16:51:15.976Z,997.5
2019-01-14T16:54:15.734Z,997.5
2019-01-14T16:57:15.377Z,997.5
2019-01-14T17:00:15.012Z,997.6
2019-01-14T17:03:15.827Z,997.8
2019-01-14T17:06:15.631Z,997.8
2019-01-14T17:09:15.518Z,997.9
2019-01-14T17:12:15.433Z,997.9
2019-01-14T17:15:15.098Z,997.9
2019-01-14T17:18:15.172Z,997.8
2019-01-14T17:21:15.808Z,997.9
2019-01-14T17:24:15.396Z,997.9
2019-01-14T17:27:15.103Z,998.1
2019-01-14T17:30:15.771Z,998.1
2019-01-14T17:33:15.329Z,998.2
2019-01-14T17:36:15.012Z,998.2
2019-01-14T17:39:15.869Z,998.2
2019-01-14T17:42:15.585Z,998.3
2019-01-14T17:45:15.312Z,998.2
2019-01-14T17:48:14.955Z,998.2
2019-01-14T17:51:15.372Z,998.3
2019-01-14T17:54:15.153Z,998.2
2019-01-14T17:57:15.765Z,998.2
2019-01-14T18:00:15.283Z,998.3
2019-01-14T18:03:15.570Z,998.4
2019-01-14T18:06:15.252Z,998.3
2019-01-14T18:09:15.982Z,998.3
2019-01-14T18:12:15.629Z,998.3
2019-01-14T18:15:15.202Z,998.4
2019-01-14T18:18:15.441Z,998.4
2019-01-14T18:21:15.103Z,998.5
2019-01-14T18:24:15.730Z,998.6
2019-01-14T18:27:15.266Z,998.6
2019-01-14T18:30:15.162Z,998.6
2019-01-14T18:33:14.897Z,998.6
2019-01-14T18:36:15.631Z,998.7
2019-01-14T18:39:15.324Z,998.8
2019-01-14T18:42:14.967Z,998.7
2019-01-14T18:45:15.602Z,998.8
2019-01-14T18:48:15.380Z,998.8
2019-01-14T18:51:15.330Z,998.9
2019-01-14T18:54:15.049Z,999.0
2019-01-14T18:57:15.802Z,998.9
2019-01-14T19:00:15.486Z,998.9
2019-01-14T19:03:15.136Z,999.0
2019-01-14T19:06:16.282Z,999.0
2019-01-14T19:09:15.938Z,998.9
2019-01-14T19:12:15.559Z,999.0
2019-01-14T19:15:15.185Z,999.1
2019-01-14T19:18:15.001Z,999.1
2019-01-14T19:21:15.334Z,999.3
2019-01-14T19:24:14.987Z,999.4
2019-01-14T19:27:16.605Z,999.6
2019-01-14T19:30:15.513Z,999.5
2019-01-14T19:33:15.137Z,999.6
2019-01-14T19:36:15.118Z,999.7
2019-01-14T19:39:15.045Z,999.7
2019-01-14T19:42:15.828Z,999.7
2019-01-14T19:45:15.259Z,999.7
2019-01-14T19:48:14.997Z,999.8
2019-01-14T19:51:15.938Z,999.9
2019-01-14T19:54:14.950Z,999.9
2019-01-14T19:57:17.538Z,999.9
2019-01-14T20:00:15.646Z,1000.0
2019-01-14T20:03:16.003Z,1000.1
2019-01-14T20:06:15.769Z,1000.1
2019-01-14T20:09:15.465Z,1000.0
2019-01-14T20:12:15.523Z,1000.1
2019-01-14T20:15:15.392Z,1000.0
2019-01-14T20:18:15.864Z,1000.2
2019-01-14T20:21:15.740Z,1000.2
2019-01-14T20:24:15.278Z,1000.2
2019-01-14T20:27:15.178Z,1000.3
2019-01-14T20:30:15.784Z,1000.3
2019-01-14T20:33:15.416Z,1000.3
2019-01-14T20:36:15.406Z,1000.3
2019-01-14T20:39:15.390Z,1000.4
2019-01-14T20:42:15.241Z,1000.3
2019-01-14T20:45:15.441Z,1000.2
2019-01-14T20:48:15.051Z,1000.2
2019-01-14T20:51:14.906Z,1000.3
2019-01-14T20:54:15.641Z,1000.3
2019-01-14T20:57:15.636Z,1000.2
2019-01-14T21:00:15.336Z,1000.3
2019-01-14T21:03:15.646Z,1000.3
2019-01-14T21:06:15.532Z,1000.3
2019-01-14T21:09:15.247Z,1000.3
2019-01-14T21:12:15.828Z,1000.3
2019-01-14T21:15:15.501Z,1000.4
2019-01-14T21:18:15.389Z,1000.5
2019-01-14T21:21:15.313Z,1000.5
2019-01-14T21:24:14.873Z,1000.5
2019-01-14T21:27:15.495Z,1000.5
2019-01-14T21:30:15.427Z,1000.7
2019-01-14T21:33:15.900Z,1000.6
2019-01-14T21:36:15.566Z,1000.6
2019-01-14T21:39:15.254Z,1000.6
2019-01-14T21:42:15.179Z,1000.6
2019-01-14T21:45:15.912Z,1000.6
2019-01-14T21:48:17.406Z,1000.7
2019-01-14T21:51:15.066Z,1000.6
2019-01-14T21:54:15.707Z,1000.6
2019-01-14T21:57:15.372Z,1000.7
2019-01-14T22:00:14.896Z,1000.7
2019-01-14T22:03:15.625Z,1000.8
2019-01-14T22:06:15.290Z,1000.8
2019-01-14T22:09:15.777Z,1000.8
2019-01-14T22:12:15.224Z,1000.9
2019-01-14T22:15:15.737Z,1000.9
2019-01-14T22:18:15.472Z,1001.0
2019-01-14T22:21:15.102Z,1001.0
2019-01-14T22:24:15.751Z,1001.0
2019-01-14T22:27:15.582Z,1001.1
2019-01-14T22:30:15.065Z,1001.1
2019-01-14T22:33:15.469Z,1001.1
2019-01-14T22:36:15.060Z,1001.1
2019-01-14T22:39:15.569Z,1001.1
2019-01-14T22:42:15.283Z,1001.2
2019-01-14T22:45:15.970Z,1001.2
2019-01-14T22:48:15.727Z,1001.2
2019-01-14T22:51:15.425Z,1001.1
2019-01-14T22:54:15.185Z,1001.1
2019-01-14T22:57:14.907Z,1001.2
2019-01-14T23:00:15.395Z,1001.2
2019-01-14T23:03:15.104Z,1001.2
2019-01-14T23:06:14.816Z,1001.3
2019-01-14T23:09:15.289Z,1001.3
2019-01-14T23:12:15.254Z,1001.3
2019-01-14T23:15:14.883Z,1001.4
2019-01-14T23:18:16.656Z,1001.3
2019-01-14T23:21:15.303Z,1001.4
2019-01-14T23:24:14.985Z,1001.4
2019-01-14T23:27:15.584Z,1001.3
2019-01-14T23:30:15.204Z,1001.4
2019-01-14T23:33:14.973Z,1001.5
2019-01-14T23:36:15.641Z,1001.4
2019-01-14T23:39:15.301Z,1001.5
2019-01-14T23:42:15.004Z,1001.5
2019-01-14T23:45:15.646Z,1001.5
2019-01-14T23:48:15.279Z,1001.5
2019-01-14T23:51:14.944Z,1001.5
2019-01-14T23:54:15.665Z,1001.6
2019-01-14T23:57:15.400Z,1001.7
